Time;durP1;ratioP1;P1;durP2;ratioP2;P2;SDS_P1;SDS_P2;PMS_P1;PMS_P2;Temp;Humidity;BMP_temperature;BMP_pressure;BME280_temperature;BME280_humidity;BME280_pressure;Samples;Min_cycle;Max_cycle;Signal;HPM_P1;HPM_P2
2021/01/22 00:01:45;;;;;;;0.50;0.50;;;;;;;-1.58;93.26;98082.50;4944627;29;20187;-82
2021/01/22 00:04:21;;;;;;;0.50;0.50;;;;;;;-1.61;93.22;98074.16;4968962;29;20231;-82
2021/01/22 00:06:51;;;;;;;0.50;0.50;;;;;;;-1.64;93.06;98070.09;4978772;28;20229;-82
2021/01/22 00:09:22;;;;;;;0.47;0.47;;;;;;;-1.67;93.42;98067.81;4983861;28;20241;-82
2021/01/22 00:11:51;;;;;;;0.50;0.50;;;;;;;-1.64;93.07;98064.03;4977241;28;20302;-82
2021/01/22 00:14:21;;;;;;;0.60;0.60;;;;;;;-1.72;93.11;98051.78;4975102;28;20250;-82
2021/01/22 00:16:49;;;;;;;0.40;0.40;;;;;;;-1.72;93.02;98050.97;4993291;28;20273;-82
2021/01/22 00:19:34;;;;;;;0.50;0.50;;;;;;;-1.75;92.91;98043.47;5043784;23;20240;-82
2021/01/22 00:22:05;;;;;;;0.47;0.47;;;;;;;-1.73;93.06;98044.13;4937205;29;20313;-82
2021/01/22 00:24:38;;;;;;;0.47;0.47;;;;;;;-1.91;93.16;98018.19;4938735;29;20238;-82
2021/01/22 00:27:19;;;;;;;0.50;0.50;;;;;;;-1.77;93.35;98024.47;4956454;29;20456;-82
2021/01/22 00:29:53;;;;;;;0.40;0.40;;;;;;;-1.89;92.94;98009.16;4940073;29;20273;-82
2021/01/22 00:32:24;;;;;;;0.60;0.60;;;;;;;-1.76;93.33;98024.25;4954834;29;20267;-82
2021/01/22 00:34:51;;;;;;;0.70;0.70;;;;;;;-1.76;92.92;98021.63;4955302;29;20216;-82
2021/01/22 00:37:22;;;;;;;0.70;0.70;;;;;;;-1.82;92.95;98004.78;4937855;29;20195;-82
2021/01/22 00:39:57;;;;;;;0.50;0.50;;;;;;;-1.80;92.99;98018.56;4954798;29;20232;-82
2021/01/22 00:42:28;;;;;;;0.50;0.50;;;;;;;-1.91;92.85;98005.06;4905658;29;20227;-82
2021/01/22 00:45:05;;;;;;;0.50;0.50;;;;;;;-1.94;92.79;97995.75;4954357;28;20250;-82
2021/01/22 00:47:37;;;;;;;0.50;0.50;;;;;;;-1.86;92.88;98016.66;4954368;29;20243;-82
2021/01/22 00:50:13;;;;;;;0.50;0.50;;;;;;;-1.84;92.92;98012.06;4937925;29;20239;-83
2021/01/22 00:52:42;;;;;;;0.50;0.50;;;;;;;-1.88;93.36;97984.53;4954617;29;20224;-82
2021/01/22 00:55:12;;;;;;;0.50;0.50;;;;;;;-1.83;92.80;97973.50;4937634;29;20267;-82
2021/01/22 00:58:10;;;;;;;0.60;0.60;;;;;;;-1.90;92.92;97965.50;4921352;29;20276;-82
2021/01/22 01:01:10;;;;;;;0.40;0.40;;;;;;;-1.80;92.87;97981.00;4913830;29;20237;-82
2021/01/22 01:03:43;;;;;;;0.50;0.50;;;;;;;-1.87;92.96;97956.47;4901471;29;20245;-83
2021/01/22 01:06:18;;;;;;;0.87;0.87;;;;;;;-1.83;92.81;97974.31;4924279;29;20858;-81
2021/01/22 01:08:54;;;;;;;0.50;0.50;;;;;;;-1.86;92.92;97958.09;4920665;29;20227;-82
2021/01/22 01:11:43;;;;;;;0.50;0.50;;;;;;;-1.84;93.06;97961.34;4910200;29;20236;-82
2021/01/22 01:14:40;;;;;;;0.50;0.50;;;;;;;-1.92;92.96;97938.66;4946840;29;20271;-82
2021/01/22 01:17:10;;;;;;;0.43;0.43;;;;;;;-1.93;92.93;97926.50;4934596;29;20243;-82
2021/01/22 01:20:04;;;;;;;0.50;0.50;;;;;;;-1.85;93.15;97931.66;4951696;23;20255;-82
2021/01/22 01:22:37;;;;;;;0.50;0.50;;;;;;;-1.79;92.74;97927.50;4986768;23;20218;-82
2021/01/22 01:25:08;;;;;;;0.50;0.50;;;;;;;-1.81;93.29;97938.16;4992300;28;20245;-82
2021/01/22 01:27:39;;;;;;;0.60;0.60;;;;;;;-1.98;92.88;97901.81;4993737;28;20206;-82
2021/01/22 01:30:08;;;;;;;0.40;0.40;;;;;;;-1.84;93.16;97932.47;4992054;28;20234;-82
2021/01/22 01:32:36;;;;;;;0.50;0.50;;;;;;;-1.89;92.93;97908.59;4975360;28;20191;-82
2021/01/22 01:35:15;;;;;;;0.90;0.90;;;;;;;-1.80;92.55;97912.72;4997803;23;20682;-82
2021/01/22 01:37:50;;;;;;;0.33;0.33;;;;;;;-1.93;92.59;97888.94;4954841;23;20235;-82
2021/01/22 01:40:25;;;;;;;0.50;0.50;;;;;;;-1.89;92.81;97885.78;4980527;23;20269;-83
2021/01/22 01:43:02;;;;;;;0.40;0.40;;;;;;;-1.86;92.84;97908.22;4967566;29;20322;-83
2021/01/22 01:45:29;;;;;;;0.50;0.50;;;;;;;-1.82;92.68;97905.03;4935050;29;20232;-82
2021/01/22 01:47:56;;;;;;;0.40;0.40;;;;;;;-1.91;92.75;97893.00;4949400;29;20644;-82
2021/01/22 01:50:41;;;;;;;0.40;0.40;;;;;;;-1.82;92.83;97894.53;4948045;29;20300;-82
2021/01/22 01:53:11;;;;;;;0.40;0.40;;;;;;;-1.89;92.79;97883.16;4951065;29;20231;-82
2021/01/22 01:55:45;;;;;;;0.40;0.40;;;;;;;-1.98;93.04;97860.63;4968907;29;20219;-82
2021/01/22 01:58:13;;;;;;;0.40;0.40;;;;;;;-1.92;93.10;97862.53;4954595;29;20227;-82
2021/01/22 02:00:55;;;;;;;0.33;0.33;;;;;;;-1.81;93.30;97867.28;4969153;29;20239;-82
2021/01/22 02:03:36;;;;;;;0.40;0.40;;;;;;;-1.78;93.15;97874.00;4980252;23;20257;-81
2021/01/22 02:06:19;;;;;;;0.50;0.50;;;;;;;-1.77;93.17;97865.09;5062747;23;20242;-82
2021/01/22 02:08:47;;;;;;;0.40;0.40;;;;;;;-1.77;92.88;97871.16;4975864;29;20191;-81
2021/01/22 02:11:17;;;;;;;0.40;0.40;;;;;;;-1.65;93.31;97871.53;4975337;29;20247;-82
2021/01/22 02:13:48;;;;;;;0.40;0.40;;;;;;;-1.37;94.56;97859.31;4958405;29;20235;-82
2021/01/22 02:16:23;;;;;;;0.40;0.40;;;;;;;-1.05;94.75;97862.41;4975983;29;20278;-82
2021/01/22 02:18:54;;;;;;;0.40;0.40;;;;;;;-0.70;94.92;97856.22;4997836;23;20243;-82
2021/01/22 02:21:40;;;;;;;0.43;0.43;;;;;;;0.22;95.26;97871.75;5051820;23;20258;-82
2021/01/22 02:24:21;;;;;;;0.40;0.40;;;;;;;0.57;95.59;97843.47;4970570;23;20238;-82
2021/01/22 02:27:08;;;;;;;0.40;0.40;;;;;;;1.02;95.61;97837.47;4964396;29;20255;-83
2021/01/22 02:29:45;;;;;;;0.40;0.40;;;;;;;1.19;95.88;97832.59;5098749;23;20238;-83
2021/01/22 02:32:33;;;;;;;0.30;0.30;;;;;;;1.78;95.44;97841.25;4998976;28;20187;-83
2021/01/22 02:35:21;;;;;;;0.43;0.43;;;;;;;1.96;95.63;97843.22;4967594;28;20212;-82
2021/01/22 03:31:10;;;;;;;0.40;0.40;;;;;;;5.27;87.47;97796.31;5138684;23;20311;-84
2021/01/22 03:37:35;;;;;;;0.40;0.40;;;;;;;5.63;82.44;97757.28;5226374;23;20269;-86
2021/01/22 03:40:37;;;;;;;0.30;0.30;;;;;;;5.97;79.91;97784.88;4926679;29;20230;-85
2021/01/22 03:43:08;;;;;;;0.40;0.40;;;;;;;6.00;78.56;97771.13;4920287;29;20194;-86
2021/01/22 03:45:42;;;;;;;0.30;0.30;;;;;;;6.46;77.90;97802.06;4931705;29;20240;-85
2021/01/22 03:48:31;;;;;;;0.30;0.30;;;;;;;6.38;76.40;97773.19;4930381;29;20228;-85
2021/01/22 03:51:07;;;;;;;0.30;0.30;;;;;;;6.79;76.06;97775.53;4925078;29;20283;-86
2021/01/22 03:53:54;;;;;;;0.30;0.30;;;;;;;6.93;74.48;97787.50;5161531;23;20236;-86
2021/01/22 03:56:57;;;;;;;0.30;0.30;;;;;;;7.00;73.95;97785.47;4991250;23;20226;-85
2021/01/22 03:59:55;;;;;;;0.30;0.30;;;;;;;6.96;73.80;97763.03;4974251;29;20237;-84
2021/01/22 04:03:34;;;;;;;0.30;0.30;;;;;;;7.01;73.11;97755.13;4972672;29;20297;-85
2021/01/22 04:06:24;;;;;;;0.30;0.30;;;;;;;6.95;71.73;97755.31;4951080;23;20248;-85
2021/01/22 04:10:03;;;;;;;0.30;0.30;;;;;;;7.17;71.87;97777.50;4959393;23;20228;-84
2021/01/22 04:12:47;;;;;;;0.30;0.30;;;;;;;7.24;70.45;97770.13;4913717;29;20232;-84
2021/01/22 04:21:45;;;;;;;0.30;0.30;;;;;;;7.44;69.03;97765.13;4980130;23;20255;-84
2021/01/22 04:24:24;;;;;;;0.30;0.30;;;;;;;7.41;69.74;97749.66;4935518;29;20204;-84
2021/01/22 04:27:05;;;;;;;0.40;0.40;;;;;;;7.44;69.81;97759.81;5078074;23;20194;-84
2021/01/22 04:29:44;;;;;;;0.30;0.30;;;;;;;7.40;69.35;97750.69;4977840;29;20250;-84
2021/01/22 04:32:46;;;;;;;0.30;0.30;;;;;;;7.40;69.16;97749.88;4929954;29;20269;-85
2021/01/22 04:35:56;;;;;;;0.30;0.30;;;;;;;7.69;68.94;97754.03;4960832;23;20296;-84
2021/01/22 04:41:48;;;;;;;0.30;0.30;;;;;;;7.86;67.18;97724.63;5034349;23;20262;-84
2021/01/22 04:44:43;;;;;;;0.30;0.30;;;;;;;8.05;67.24;97746.47;4978163;29;20187;-84
2021/01/22 04:50:49;;;;;;;0.20;0.20;;;;;;;8.26;66.06;97746.44;4918118;29;21013;-85
2021/01/22 04:53:47;;;;;;;0.30;0.30;;;;;;;8.25;66.15;97760.03;4936995;29;20181;-85
2021/01/22 04:57:02;;;;;;;0.30;0.30;;;;;;;8.45;66.86;97799.50;4918659;29;20305;-85
2021/01/22 04:59:49;;;;;;;0.30;0.30;;;;;;;8.32;66.15;97774.03;4921133;29;20229;-85
2021/01/22 05:03:13;;;;;;;0.30;0.30;;;;;;;8.40;66.36;97795.72;4898216;29;20247;-85
2021/01/22 05:06:02;;;;;;;0.40;0.40;;;;;;;8.24;66.73;97767.25;5149484;23;20237;-85
2021/01/22 05:08:59;;;;;;;0.30;0.30;;;;;;;8.44;66.62;97789.91;5068870;23;20236;-85
2021/01/22 05:15:31;;;;;;;0.30;0.30;;;;;;;8.44;65.80;97790.72;5010161;23;20289;-84
2021/01/22 05:18:45;;;;;;;0.30;0.30;;;;;;;8.47;65.59;97776.06;4952825;29;20256;-84
2021/01/22 05:21:14;;;;;;;0.30;0.30;;;;;;;8.71;65.96;97793.41;4955961;29;20242;-83
2021/01/22 05:23:58;;;;;;;0.30;0.30;;;;;;;8.83;65.00;97775.34;4942693;29;20232;-84
2021/01/22 05:27:01;;;;;;;0.30;0.30;;;;;;;8.98;64.43;97775.50;4974549;29;20237;-84
2021/01/22 05:29:41;;;;;;;0.30;0.30;;;;;;;8.81;63.73;97751.59;4975154;29;20264;-84
2021/01/22 05:32:40;;;;;;;0.30;0.30;;;;;;;8.79;63.61;97764.38;4971478;29;20251;-84
2021/01/22 05:35:32;;;;;;;0.20;0.20;;;;;;;8.90;64.07;97778.63;4922818;29;20243;-83
2021/01/22 05:38:05;;;;;;;0.30;0.30;;;;;;;8.87;63.77;97778.31;4960896;29;20220;-84
2021/01/22 05:41:12;;;;;;;0.30;0.30;;;;;;;8.86;63.56;97784.72;4975953;29;20623;-83
2021/01/22 05:43:46;;;;;;;0.20;0.20;;;;;;;8.83;62.79;97767.34;4976985;29;20269;-83
2021/01/22 05:46:28;;;;;;;0.30;0.30;;;;;;;8.98;62.26;97761.31;4962113;29;20226;-84
2021/01/22 05:49:12;;;;;;;0.30;0.30;;;;;;;9.19;62.17;97779.94;4957765;29;20191;-84
2021/01/22 05:51:51;;;;;;;0.30;0.30;;;;;;;9.28;61.55;97758.91;4917369;29;20235;-84
2021/01/22 05:54:42;;;;;;;0.27;0.27;;;;;;;9.28;61.43;97765.03;4956613;29;20326;-83
2021/01/22 05:57:25;;;;;;;0.20;0.20;;;;;;;9.37;60.39;97767.25;4953005;23;20246;-83
2021/01/22 06:00:17;;;;;;;0.30;0.30;;;;;;;9.62;60.79;97788.78;4984043;23;20326;-83
2021/01/22 06:03:01;;;;;;;0.20;0.20;;;;;;;9.70;60.81;97797.13;4972541;29;20230;-83
2021/01/22 06:05:51;;;;;;;0.17;0.17;;;;;;;9.77;60.29;97788.09;4970929;29;20239;-83
2021/01/22 06:08:25;;;;;;;0.20;0.20;;;;;;;9.65;60.97;97788.28;5030383;23;20240;-83
2021/01/22 06:11:16;;;;;;;0.20;0.20;;;;;;;9.50;61.59;97774.81;4942343;29;20256;-84
2021/01/22 06:14:04;;;;;;;0.20;0.20;;;;;;;9.58;62.32;97785.03;4950492;29;20202;-83
2021/01/22 06:17:16;;;;;;;0.27;0.27;;;;;;;9.65;63.66;97801.66;4954219;29;20242;-82
2021/01/22 06:20:23;;;;;;;0.20;0.20;;;;;;;9.57;64.84;97818.16;4956613;29;20235;-83
2021/01/22 06:23:23;;;;;;;0.20;0.20;;;;;;;9.37;65.92;97786.78;4949001;23;20239;-83
2021/01/22 06:26:07;;;;;;;0.20;0.20;;;;;;;9.36;66.21;97811.88;4936027;29;20325;-84
2021/01/22 06:28:50;;;;;;;0.20;0.20;;;;;;;9.37;66.50;97815.38;4936952;29;20243;-83
2021/01/22 06:31:41;;;;;;;0.20;0.20;;;;;;;9.41;67.03;97827.16;4905081;29;20287;-83
2021/01/22 06:34:34;;;;;;;0.20;0.20;;;;;;;9.12;67.84;97800.72;4864431;29;20229;-83
2021/01/22 06:37:48;;;;;;;0.20;0.20;;;;;;;9.10;67.84;97772.63;4958497;23;20240;-83
2021/01/22 06:41:07;;;;;;;0.30;0.30;;;;;;;9.35;68.04;97812.13;4918282;29;20260;-83
2021/01/22 06:44:07;;;;;;;0.30;0.30;;;;;;;9.08;68.04;97783.59;5120067;23;20307;-84
2021/01/22 06:46:51;;;;;;;0.27;0.27;;;;;;;9.18;68.44;97810.41;4971867;29;20268;-83
2021/01/22 06:49:55;;;;;;;0.30;0.30;;;;;;;9.27;68.70;97789.38;4974952;23;20370;-83
2021/01/22 06:52:24;;;;;;;0.30;0.30;;;;;;;9.42;68.41;97810.88;4985351;23;20255;-82
2021/01/22 06:56:00;;;;;;;0.20;0.20;;;;;;;9.43;68.81;97817.00;4981422;23;20353;-83
2021/01/22 07:05:37;;;;;;;0.30;0.30;;;;;;;9.28;68.85;97794.44;5119162;23;20241;-83
2021/01/22 07:08:08;;;;;;;0.20;0.20;;;;;;;9.36;69.28;97800.38;4935217;29;20311;-81
2021/01/22 07:10:56;;;;;;;0.30;0.30;;;;;;;9.39;69.13;97794.50;4913873;29;20199;-82
2021/01/22 07:13:33;;;;;;;0.30;0.30;;;;;;;9.31;68.92;97785.13;4929240;29;20235;-82
2021/01/22 07:16:31;;;;;;;0.30;0.30;;;;;;;9.24;69.37;97769.28;4924900;29;20246;-83
2021/01/22 07:19:08;;;;;;;0.30;0.30;;;;;;;9.33;69.08;97774.97;4950731;29;20544;-82
2021/01/22 07:21:37;;;;;;;0.20;0.20;;;;;;;9.18;69.16;97770.31;4935935;29;20244;-84
2021/01/22 07:24:18;;;;;;;0.30;0.30;;;;;;;9.52;68.80;97800.22;4906355;29;20216;-83
2021/01/22 07:26:47;;;;;;;0.30;0.30;;;;;;;9.39;69.24;97799.84;4931838;29;20464;-84
2021/01/22 07:29:24;;;;;;;0.20;0.20;;;;;;;9.42;69.25;97800.19;4934889;29;20235;-83
2021/01/22 07:32:12;;;;;;;0.30;0.30;;;;;;;9.43;68.79;97771.56;4932962;29;20255;-83
2021/01/22 07:34:57;;;;;;;0.30;0.30;;;;;;;9.58;68.15;97777.00;4948795;29;20279;-83
2021/01/22 07:37:49;;;;;;;0.20;0.20;;;;;;;9.76;67.76;97802.50;4916192;29;20245;-83
2021/01/22 07:40:20;;;;;;;0.30;0.30;;;;;;;9.69;68.03;97798.22;5100316;23;20249;-83
2021/01/22 07:42:59;;;;;;;0.30;0.30;;;;;;;9.72;68.33;97808.38;4960222;23;20327;-82
2021/01/22 07:45:39;;;;;;;0.20;0.20;;;;;;;9.66;68.24;97798.72;4954615;23;20254;-83
2021/01/22 07:48:30;;;;;;;0.30;0.30;;;;;;;9.63;67.75;97798.44;4974773;23;20232;-82
2021/01/22 07:51:35;;;;;;;0.20;0.20;;;;;;;9.71;67.70;97816.66;4944285;29;20247;-82
2021/01/22 07:54:21;;;;;;;0.23;0.23;;;;;;;9.55;68.24;97793.56;4941549;29;20245;-83
2021/01/22 07:57:13;;;;;;;0.20;0.20;;;;;;;9.45;68.25;97794.31;4955558;29;20242;-83
2021/01/22 07:59:48;;;;;;;0.23;0.23;;;;;;;9.45;68.12;97783.63;4960493;29;20234;-84
2021/01/22 08:02:24;;;;;;;0.20;0.20;;;;;;;9.46;68.03;97774.53;4981525;23;20306;-83
2021/01/22 08:05:31;;;;;;;0.30;0.30;;;;;;;9.68;67.99;97801.13;4944853;29;20242;-83
2021/01/22 08:08:27;;;;;;;0.20;0.20;;;;;;;9.57;67.82;97784.22;4942540;23;20218;-82
2021/01/22 08:11:00;;;;;;;0.30;0.30;;;;;;;9.56;67.66;97776.47;4926282;29;20199;-82
2021/01/22 08:13:46;;;;;;;0.20;0.20;;;;;;;9.46;68.10;97773.72;4924362;23;20238;-83
2021/01/22 08:16:38;;;;;;;0.20;0.20;;;;;;;9.66;67.62;97793.38;4930849;23;20215;-82
2021/01/22 08:19:07;;;;;;;0.20;0.20;;;;;;;9.45;67.49;97748.88;4953550;23;20217;-83
2021/01/22 08:21:45;;;;;;;0.30;0.30;;;;;;;9.50;67.65;97756.91;4989933;23;20283;-84
2021/01/22 08:24:40;;;;;;;0.30;0.30;;;;;;;9.62;67.43;97768.22;4958816;23;20654;-81
2021/01/22 08:27:23;;;;;;;0.30;0.30;;;;;;;9.60;67.83;97764.19;4958566;29;20291;-83
2021/01/22 08:30:16;;;;;;;0.20;0.20;;;;;;;9.81;67.08;97770.44;4941454;29;20239;-83
2021/01/22 08:33:10;;;;;;;0.30;0.30;;;;;;;9.79;66.85;97764.56;5038820;23;20234;-84
2021/01/22 08:36:09;;;;;;;0.30;0.30;;;;;;;9.67;66.60;97760.22;4990767;23;20234;-83
2021/01/22 08:39:02;;;;;;;0.20;0.20;;;;;;;9.59;66.59;97728.63;5281460;23;20227;-82
2021/01/22 08:42:36;;;;;;;0.20;0.20;;;;;;;9.78;65.87;97737.03;5156261;23;20230;-82
2021/01/22 08:49:56;;;;;;;0.20;0.20;;;;;;;10.06;65.04;97766.03;5361330;22;20593;-83
2021/01/22 08:56:36;;;;;;;0.30;0.30;;;;;;;10.15;64.98;97771.69;5251032;22;20268;-83
2021/01/22 08:59:59;;;;;;;0.30;0.30;;;;;;;9.77;65.18;97730.06;5548285;23;20229;-84
2021/01/22 09:03:41;;;;;;;0.20;0.20;;;;;;;9.82;65.22;97738.09;5026298;22;20235;-83
2021/01/22 09:10:06;;;;;;;0.20;0.20;;;;;;;9.88;64.81;97752.31;5104429;23;20242;-82
2021/01/22 09:13:54;;;;;;;0.20;0.20;;;;;;;9.96;64.92;97747.28;5033497;23;20226;-83
2021/01/22 09:17:07;;;;;;;0.30;0.30;;;;;;;10.00;64.78;97763.59;5065392;22;20234;-83
2021/01/22 09:20:49;;;;;;;0.20;0.20;;;;;;;10.13;65.00;97782.66;4934521;28;20183;-83
2021/01/22 09:24:00;;;;;;;0.20;0.20;;;;;;;10.26;64.76;97784.09;4996139;23;20202;-83
2021/01/22 09:27:03;;;;;;;0.20;0.20;;;;;;;10.43;64.09;97792.72;4947858;28;20207;-82
2021/01/22 09:33:40;;;;;;;0.20;0.20;;;;;;;10.67;63.30;97782.34;784161;23;20633;-82
2021/01/22 09:36:51;;;;;;;0.20;0.20;;;;;;;10.58;62.10;97741.88;4994970;28;20244;-83
2021/01/22 09:40:33;;;;;;;0.20;0.20;;;;;;;10.82;61.45;97762.81;4994098;28;20195;-83
2021/01/22 09:53:06;;;;;;;0.17;0.17;;;;;;;11.35;59.21;97756.13;4998674;23;20291;-82
2021/01/22 09:56:50;;;;;;;0.20;0.20;;;;;;;11.55;59.10;97766.00;4925061;29;20185;-84
2021/01/22 09:59:17;;;;;;;0.20;0.20;;;;;;;11.76;57.81;97783.69;4888501;29;20537;-82
2021/01/22 10:01:57;;;;;;;0.20;0.20;;;;;;;11.72;57.74;97761.97;4897898;28;20241;-82
2021/01/22 10:04:25;;;;;;;0.20;0.20;;;;;;;12.01;57.03;97772.91;4888317;28;20250;-82
2021/01/22 10:06:54;;;;;;;0.20;0.20;;;;;;;12.06;56.67;97772.91;4870500;29;20226;-82
2021/01/22 10:09:25;;;;;;;0.20;0.20;;;;;;;12.21;56.18;97772.84;4895894;28;20276;-81
2021/01/22 10:11:52;;;;;;;0.20;0.20;;;;;;;12.13;56.70;97767.25;4871713;29;20260;-82
2021/01/22 10:14:35;;;;;;;0.20;0.20;;;;;;;12.27;55.98;97779.78;4901222;28;20230;-83
2021/01/22 10:17:04;;;;;;;0.10;0.10;;;;;;;12.26;56.28;97772.03;4901329;29;20266;-82
2021/01/22 10:19:34;;;;;;;0.20;0.20;;;;;;;12.29;56.35;97766.09;4914085;29;20411;-82
2021/01/22 10:22:03;;;;;;;0.20;0.20;;;;;;;12.47;56.24;97786.16;4879160;29;20239;-82
2021/01/22 10:38:58;;;;;;;0.30;0.30;;;;;;;12.18;56.94;97770.69;5528700;23;20548;-89
2021/01/22 11:11:38;;;;;;;0.20;0.20;;;;;;;12.45;57.98;97740.78;5171152;23;20446;-83
2021/01/22 11:46:54;;;;;;;0.10;0.10;;;;;;;13.46;55.94;97688.94;4946749;23;20228;-84
2021/01/22 11:49:30;;;;;;;0.20;0.20;;;;;;;13.51;56.34;97694.28;4884215;29;20233;-87
2021/01/22 11:51:56;;;;;;;0.20;0.20;;;;;;;13.58;56.09;97683.97;4847956;29;20244;-86
2021/01/22 11:54:23;;;;;;;0.20;0.20;;;;;;;13.75;55.11;97693.47;4927284;28;20639;-87
2021/01/22 11:56:50;;;;;;;0.20;0.20;;;;;;;13.67;55.44;97676.84;4918510;29;20238;-88
2021/01/22 11:59:20;;;;;;;0.13;0.13;;;;;;;13.78;54.88;97677.56;4861083;29;20231;-86
2021/01/22 12:01:47;;;;;;;0.10;0.10;;;;;;;13.91;55.09;97694.88;4847608;29;20235;-87
2021/01/22 12:04:14;;;;;;;0.10;0.10;;;;;;;13.92;53.95;97683.84;4918391;28;20231;-87
2021/01/22 12:06:41;;;;;;;0.20;0.20;;;;;;;13.95;53.26;97669.78;4860270;29;20227;-87
2021/01/22 12:09:07;;;;;;;0.20;0.20;;;;;;;14.06;52.51;97671.28;4845763;29;20234;-88
2021/01/22 12:11:34;;;;;;;0.20;0.20;;;;;;;14.15;52.22;97668.75;4847552;29;20270;-87
2021/01/22 12:14:01;;;;;;;0.10;0.10;;;;;;;14.07;52.52;97651.34;4942443;28;20243;-88
2021/01/22 12:16:28;;;;;;;0.20;0.20;;;;;;;14.25;51.73;97673.19;4939623;29;20234;-96
2021/01/22 12:18:54;;;;;;;0.20;0.20;;;;;;;14.32;52.58;97673.66;4847110;29;20682;-95
2021/01/22 12:21:21;;;;;;;0.20;0.20;;;;;;;14.32;52.90;97665.56;4934282;29;20289;-90
2021/01/22 12:23:47;;;;;;;0.20;0.20;;;;;;;14.31;51.93;97664.75;4844377;29;20703;-90
2021/01/22 12:26:14;;;;;;;0.10;0.10;;;;;;;14.27;50.73;97650.28;4860864;28;20317;-94
2021/01/22 12:28:40;;;;;;;0.10;0.10;;;;;;;14.42;50.63;97668.13;4861169;29;20240;-93
2021/01/22 12:31:07;;;;;;;0.20;0.20;;;;;;;14.31;50.64;97658.56;4862098;29;20239;-92
2021/01/22 12:33:34;;;;;;;0.20;0.20;;;;;;;14.46;50.15;97666.47;4846053;29;20268;-94
2021/01/22 12:36:02;;;;;;;0.20;0.20;;;;;;;14.50;49.89;97656.72;4860083;28;20232;-92
2021/01/22 12:38:29;;;;;;;0.10;0.10;;;;;;;14.35;50.04;97629.94;4856506;29;20244;-95
2021/01/22 12:40:55;;;;;;;0.10;0.10;;;;;;;14.50;50.49;97656.72;4928966;28;20219;-96
2021/01/22 12:43:21;;;;;;;0.20;0.20;;;;;;;14.51;50.31;97652.94;4863920;28;20234;-91
2021/01/22 12:45:48;;;;;;;0.20;0.20;;;;;;;14.42;50.39;97641.19;4864089;28;20266;-92
2021/01/22 12:48:14;;;;;;;0.20;0.20;;;;;;;14.42;50.60;97641.19;4864471;28;20227;-95
2021/01/22 12:50:42;;;;;;;0.20;0.20;;;;;;;14.48;50.88;97645.41;4860942;29;20243;-91
2021/01/22 12:53:08;;;;;;;0.20;0.20;;;;;;;14.56;50.73;97665.53;4845337;29;20242;-94
2021/01/22 12:55:35;;;;;;;0.10;0.10;;;;;;;14.51;50.46;97650.22;4876133;29;20237;-94
2021/01/22 12:58:02;;;;;;;0.20;0.20;;;;;;;14.51;50.16;97655.63;4846116;28;20236;-87
2021/01/22 13:00:37;;;;;;;0.20;0.20;;;;;;;14.36;50.60;97629.69;4911969;29;20591;-92
2021/01/22 13:03:08;;;;;;;0.17;0.17;;;;;;;14.32;50.62;97619.78;4893079;29;20271;-95
2021/01/22 13:05:34;;;;;;;0.20;0.20;;;;;;;14.40;50.67;97622.63;4861277;29;20324;-96
2021/01/22 13:08:01;;;;;;;0.20;0.20;;;;;;;14.54;50.20;97647.75;4853774;28;20234;-88
2021/01/22 13:10:27;;;;;;;0.10;0.10;;;;;;;14.43;50.46;97637.41;4876375;29;20237;-93
2021/01/22 13:12:55;;;;;;;0.20;0.20;;;;;;;14.35;50.74;97636.16;4861048;29;20232;-91
2021/01/22 13:15:21;;;;;;;0.10;0.10;;;;;;;14.40;50.79;97648.78;4861229;29;20296;-93
2021/01/22 13:17:48;;;;;;;0.20;0.20;;;;;;;14.38;51.24;97654.44;4847948;29;20585;-94
2021/01/22 13:20:17;;;;;;;0.20;0.20;;;;;;;14.31;51.42;97658.56;4895441;28;20540;-94
2021/01/22 13:22:46;;;;;;;0.10;0.10;;;;;;;14.31;51.25;97648.59;4860700;29;20230;-93
2021/01/22 13:25:13;;;;;;;0.20;0.20;;;;;;;14.28;51.14;97646.47;4876357;28;20249;-93
2021/01/22 13:27:39;;;;;;;0.20;0.20;;;;;;;14.24;51.80;97656.22;4844822;29;20229;-93
2021/01/22 13:30:06;;;;;;;0.20;0.20;;;;;;;14.22;51.42;97641.47;4844736;28;20240;-93
2021/01/22 13:32:33;;;;;;;0.20;0.20;;;;;;;14.16;51.94;97640.72;4876845;28;20233;-94
2021/01/22 13:35:00;;;;;;;0.20;0.20;;;;;;;14.07;51.47;97632.50;4863502;29;20322;-93
2021/01/22 13:37:27;;;;;;;0.13;0.13;;;;;;;13.97;51.86;97623.75;4864932;29;20232;-92
2021/01/22 13:39:54;;;;;;;0.10;0.10;;;;;;;14.09;51.77;97627.59;4848380;28;20244;-91
2021/01/22 13:42:20;;;;;;;0.20;0.20;;;;;;;14.03;51.71;97623.41;4878491;28;20534;-90
2021/01/22 13:44:48;;;;;;;0.20;0.20;;;;;;;14.07;51.68;97619.03;4898536;28;20574;-91
2021/01/22 13:47:19;;;;;;;0.20;0.20;;;;;;;14.04;51.57;97614.22;4881956;28;20537;-87
2021/01/22 13:49:58;;;;;;;0.20;0.20;;;;;;;13.97;51.78;97612.97;4880803;28;20254;-90
2021/01/22 13:52:29;;;;;;;0.20;0.20;;;;;;;13.80;51.97;97591.16;4875955;28;20235;-89
2021/01/22 13:54:55;;;;;;;0.10;0.10;;;;;;;13.88;51.74;97606.63;4879768;29;20267;-91
2021/01/22 13:57:22;;;;;;;0.20;0.20;;;;;;;13.75;51.86;97583.94;4847625;29;20310;-90
2021/01/22 13:59:50;;;;;;;0.20;0.20;;;;;;;13.80;52.04;97612.69;4847691;29;20240;-92
2021/01/22 14:02:16;;;;;;;0.20;0.20;;;;;;;13.83;52.09;97617.47;4862991;28;20237;-93
2021/01/22 14:04:44;;;;;;;0.10;0.10;;;;;;;13.72;52.83;97607.94;4878618;29;20291;-93
2021/01/22 14:07:11;;;;;;;0.20;0.20;;;;;;;13.70;52.40;97593.97;4862684;28;20290;-92
2021/01/22 14:09:38;;;;;;;0.10;0.10;;;;;;;13.73;53.24;97615.72;4884494;29;20251;-89
2021/01/22 14:12:05;;;;;;;0.10;0.10;;;;;;;13.72;52.88;97610.63;4847532;29;20236;-92
2021/01/22 14:14:32;;;;;;;0.20;0.20;;;;;;;13.67;53.33;97609.59;4862365;29;20241;-90
2021/01/22 14:16:58;;;;;;;0.10;0.10;;;;;;;13.58;53.63;97610.50;4863133;29;20228;-93
2021/01/22 14:19:27;;;;;;;0.17;0.17;;;;;;;13.53;53.66;97591.75;4862416;29;20235;-86
2021/01/22 14:21:53;;;;;;;0.10;0.10;;;;;;;13.47;54.41;97600.97;4878706;28;20249;-85
2021/01/22 14:24:21;;;;;;;0.20;0.20;;;;;;;13.42;54.49;97609.91;4927387;28;20399;-91
2021/01/22 14:26:47;;;;;;;0.20;0.20;;;;;;;13.14;54.71;97586.53;4847944;29;20230;-92
2021/01/22 14:29:13;;;;;;;0.10;0.10;;;;;;;13.14;54.65;97587.34;4878017;28;20227;-87
2021/01/22 14:31:40;;;;;;;0.20;0.20;;;;;;;13.16;54.84;97603.19;4926365;29;20661;-91
2021/01/22 14:34:06;;;;;;;0.10;0.10;;;;;;;12.96;54.74;97582.66;4846462;28;20655;-88
2021/01/22 14:36:33;;;;;;;0.20;0.20;;;;;;;13.05;54.67;97593.59;4848212;29;20227;-87
2021/01/22 14:38:59;;;;;;;0.10;0.10;;;;;;;13.06;54.54;97587.16;4868065;29;20245;-87
2021/01/22 14:41:26;;;;;;;0.20;0.20;;;;;;;13.08;55.36;97612.66;4852668;29;20322;-84
2021/01/22 14:43:52;;;;;;;0.20;0.20;;;;;;;12.94;55.56;97590.19;4884393;28;20303;-87
2021/01/22 14:46:23;;;;;;;0.10;0.10;;;;;;;13.04;55.96;97603.56;4884324;28;20673;-88
2021/01/22 14:48:51;;;;;;;0.20;0.20;;;;;;;13.00;56.03;97609.78;4906342;23;20249;-87
2021/01/22 14:54:38;;;;;;;0.10;0.10;;;;;;;12.83;56.69;97609.41;5012199;23;20257;-83
2021/01/22 14:57:44;;;;;;;0.20;0.20;;;;;;;12.61;56.90;97602.59;4958514;28;20256;-83
2021/01/22 15:00:33;;;;;;;0.20;0.20;;;;;;;12.32;57.59;97564.94;5105857;23;20250;-84
2021/01/22 15:03:29;;;;;;;0.20;0.20;;;;;;;12.27;57.94;97573.03;4902437;29;20226;-84
2021/01/22 15:09:31;;;;;;;0.13;0.13;;;;;;;12.22;58.76;97605.31;4909568;23;20306;-82
2021/01/22 15:16:25;;;;;;;0.20;0.20;;;;;;;11.85;59.98;97603.09;4975215;23;20252;-82
2021/01/22 15:23:02;;;;;;;0.20;0.20;;;;;;;11.38;60.63;97562.56;4932164;29;20228;-83
2021/01/22 15:28:34;;;;;;;0.20;0.20;;;;;;;11.11;61.70;97556.72;4966400;28;20309;-83
2021/01/22 15:31:41;;;;;;;0.20;0.20;;;;;;;11.03;61.78;97558.91;4939622;29;20226;-83
2021/01/22 15:37:47;;;;;;;0.20;0.20;;;;;;;10.81;62.40;97577.19;4980353;29;20182;-83
2021/01/22 15:41:18;;;;;;;0.20;0.20;;;;;;;10.75;62.64;97582.78;4988517;23;20245;-82
2021/01/22 15:44:54;;;;;;;0.20;0.20;;;;;;;10.54;62.86;97590.06;4962351;23;20216;-83
2021/01/22 15:48:04;;;;;;;0.20;0.20;;;;;;;10.46;62.90;97583.34;4943321;23;20236;-82
2021/01/22 15:50:44;;;;;;;0.20;0.20;;;;;;;10.62;63.04;97605.59;4862614;29;20246;-82
2021/01/22 15:53:23;;;;;;;0.30;0.30;;;;;;;10.54;63.13;97614.94;4859963;29;20254;-82
2021/01/22 15:56:26;;;;;;;0.20;0.20;;;;;;;10.56;64.00;97615.50;4928576;23;20236;-82
2021/01/22 15:59:43;;;;;;;0.20;0.20;;;;;;;10.48;64.64;97609.88;4891558;29;20245;-82
2021/01/22 16:03:31;;;;;;;0.20;0.20;;;;;;;10.52;65.77;97611.75;5026621;23;20222;-82
2021/01/22 16:09:33;;;;;;;0.30;0.30;;;;;;;10.56;66.34;97585.22;5256858;23;20252;-84
2021/01/22 16:12:37;;;;;;;0.30;0.30;;;;;;;10.26;66.88;97580.69;4915122;28;20185;-82
2021/01/22 16:15:42;;;;;;;0.30;0.30;;;;;;;10.44;66.86;97592.72;4932909;23;20259;-83